KDMO/DMO METAR and TAF weather

Enter ICAO airport designator
Station Type Date Time Source
KDMO METAR 2020/04/09 19:53 UTC NOAA

KDMO 091953Z AUTO 32024G36KT 10SM FEW120 15/M06 A3002 RMK AO2 PK WND 31036/1951 SLP166 T01501061


Station Type Date Time Source
KDMO Decoded METAR 2020/04/09 19:53 UTC NOAA

SEDALIA MEMORIAL AIRPORT, MO, United States (KDMO) 38-43N 93-10W 274M
Apr 09, 2020 - 03:53 PM EDT / 2020.04.09 1953 UTC
Wind: from the NW (320 degrees) at 28 MPH (24 KT) gusting to 41 MPH (36 KT):0
Visibility: 10 mile(s):0
Sky conditions: mostly clear
Temperature: 59.0 F (15.0 C)
Dew Point: 21.0 F (-6.1 C)
Relative Humidity: 22%
Pressure (altimeter): 30.02 in. Hg (1016 hPa)
ob: KDMO 091953Z AUTO 32024G36KT 10SM FEW120 15/M06 A3002 RMK AO2 PK WND 31036/1951 SLP166 T01501061
cycle: 20

Station Type Date Time Source
KDMO TAF UTC NOAA

Error!

Example: see airport list